sensor_id;sensor_type;location;lat;lon;timestamp;temperature;humidity
24676;DHT22;12799;53.690;10.114;2022-11-23T00:00:31;1.80;99.90
24676;DHT22;12799;53.690;10.114;2022-11-23T00:02:33;1.90;99.90
24676;DHT22;12799;53.690;10.114;2022-11-23T00:04:34;1.90;99.90
24676;DHT22;12799;53.690;10.114;2022-11-23T00:06:36;1.90;99.90
24676;DHT22;12799;53.690;10.114;2022-11-23T00:08:38;1.90;99.90
24676;DHT22;12799;53.690;10.114;2022-11-23T00:10:40;1.90;99.90
24676;DHT22;12799;53.690;10.114;2022-11-23T00:12:41;1.90;99.90
24676;DHT22;12799;53.690;10.114;2022-11-23T00:14:44;2.00;99.90
24676;DHT22;12799;53.690;10.114;2022-11-23T00:16:46;2.00;99.90
24676;DHT22;12799;53.690;10.114;2022-11-23T00:18:50;2.00;99.90
24676;DHT22;12799;53.690;10.114;2022-11-23T00:20:52;2.00;99.90
24676;DHT22;12799;53.690;10.114;2022-11-23T00:22:54;2.00;99.90
24676;DHT22;12799;53.690;10.114;2022-11-23T00:24:55;2.10;99.90
24676;DHT22;12799;53.690;10.114;2022-11-23T00:26:57;2.00;99.90
24676;DHT22;12799;53.690;10.114;2022-11-23T00:28:59;2.20;99.90
24676;DHT22;12799;53.690;10.114;2022-11-23T00:31:02;2.10;99.90
24676;DHT22;12799;53.690;10.114;2022-11-23T00:33:04;2.10;99.90
24676;DHT22;12799;53.690;10.114;2022-11-23T00:35:06;2.20;99.90
24676;DHT22;12799;53.690;10.114;2022-11-23T00:37:07;2.10;99.90
24676;DHT22;12799;53.690;10.114;2022-11-23T00:39:09;2.10;99.90
24676;DHT22;12799;53.690;10.114;2022-11-23T00:41:12;2.10;99.90
24676;DHT22;12799;53.690;10.114;2022-11-23T00:43:14;2.20;99.90
24676;DHT22;12799;53.690;10.114;2022-11-23T00:45:16;2.10;99.90
24676;DHT22;12799;53.690;10.114;2022-11-23T00:47:19;2.20;99.90
24676;DHT22;12799;53.690;10.114;2022-11-23T00:49:21;2.20;99.90
24676;DHT22;12799;53.690;10.114;2022-11-23T00:51:24;2.20;99.90
24676;DHT22;12799;53.690;10.114;2022-11-23T00:53:40;2.20;99.90
24676;DHT22;12799;53.690;10.114;2022-11-23T00:55:49;2.20;99.90
24676;DHT22;12799;53.690;10.114;2022-11-23T00:57:51;2.30;99.90
24676;DHT22;12799;53.690;10.114;2022-11-23T00:59:52;2.30;99.90
24676;DHT22;12799;53.690;10.114;2022-11-23T01:01:54;2.20;99.90
24676;DHT22;12799;53.690;10.114;2022-11-23T01:03:59;2.30;99.90
24676;DHT22;12799;53.690;10.114;2022-11-23T01:06:03;2.40;99.90
24676;DHT22;12799;53.690;10.114;2022-11-23T01:08:05;2.30;99.90
24676;DHT22;12799;53.690;10.114;2022-11-23T01:10:07;2.30;99.90
24676;DHT22;12799;53.690;10.114;2022-11-23T01:12:09;2.30;99.90
24676;DHT22;12799;53.690;10.114;2022-11-23T01:14:12;2.30;99.90
24676;DHT22;12799;53.690;10.114;2022-11-23T01:16:15;2.30;99.90
24676;DHT22;12799;53.690;10.114;2022-11-23T01:18:17;2.30;99.90
24676;DHT22;12799;53.690;10.114;2022-11-23T01:20:20;2.30;99.90
24676;DHT22;12799;53.690;10.114;2022-11-23T01:22:22;2.30;99.90
24676;DHT22;12799;53.690;10.114;2022-11-23T01:24:23;2.40;99.90
24676;DHT22;12799;53.690;10.114;2022-11-23T01:26:25;2.40;99.90
24676;DHT22;12799;53.690;10.114;2022-11-23T01:28:27;2.40;99.90
24676;DHT22;12799;53.690;10.114;2022-11-23T01:30:29;2.40;99.90
24676;DHT22;12799;53.690;10.114;2022-11-23T01:32:30;2.40;99.90
24676;DHT22;12799;53.690;10.114;2022-11-23T01:34:32;2.40;99.90
24676;DHT22;12799;53.690;10.114;2022-11-23T01:36:35;2.40;99.90
24676;DHT22;12799;53.690;10.114;2022-11-23T01:38:37;2.40;99.90
24676;DHT22;12799;53.690;10.114;2022-11-23T01:40:39;2.50;99.90
24676;DHT22;12799;53.690;10.114;2022-11-23T01:42:52;2.50;99.90
24676;DHT22;12799;53.690;10.114;2022-11-23T01:45:05;2.50;99.90
24676;DHT22;12799;53.690;10.114;2022-11-23T01:47:27;2.50;99.90
24676;DHT22;12799;53.690;10.114;2022-11-23T01:49:30;2.50;99.90
24676;DHT22;12799;53.690;10.114;2022-11-23T01:51:34;2.50;99.90
24676;DHT22;12799;53.690;10.114;2022-11-23T01:53:37;2.60;99.90
24676;DHT22;12799;53.690;10.114;2022-11-23T01:55:39;2.60;99.90
24676;DHT22;12799;53.690;10.114;2022-11-23T01:57:41;2.60;99.90
24676;DHT22;12799;53.690;10.114;2022-11-23T01:59:44;2.60;99.90
24676;DHT22;12799;53.690;10.114;2022-11-23T02:01:46;2.70;99.90
24676;DHT22;12799;53.690;10.114;2022-11-23T02:03:48;2.70;99.90
24676;DHT22;12799;53.690;10.114;2022-11-23T02:05:52;2.70;99.90
24676;DHT22;12799;53.690;10.114;2022-11-23T02:07:59;2.70;99.90
24676;DHT22;12799;53.690;10.114;2022-11-23T02:10:03;2.80;99.90
24676;DHT22;12799;53.690;10.114;2022-11-23T02:12:06;2.70;99.90
24676;DHT22;12799;53.690;10.114;2022-11-23T02:14:07;2.80;99.90
24676;DHT22;12799;53.690;10.114;2022-11-23T02:16:09;2.80;99.90
24676;DHT22;12799;53.690;10.114;2022-11-23T02:18:12;2.80;99.90
24676;DHT22;12799;53.690;10.114;2022-11-23T02:20:16;2.80;99.90
24676;DHT22;12799;53.690;10.114;2022-11-23T02:22:21;2.80;99.90
24676;DHT22;12799;53.690;10.114;2022-11-23T02:24:25;2.80;99.90
24676;DHT22;12799;53.690;10.114;2022-11-23T02:26:31;2.80;99.90
24676;DHT22;12799;53.690;10.114;2022-11-23T02:28:34;2.80;99.90
24676;DHT22;12799;53.690;10.114;2022-11-23T02:30:37;2.80;99.90
24676;DHT22;12799;53.690;10.114;2022-11-23T02:32:39;2.80;99.90
24676;DHT22;12799;53.690;10.114;2022-11-23T02:34:42;2.80;99.90
24676;DHT22;12799;53.690;10.114;2022-11-23T02:36:44;2.90;99.90
24676;DHT22;12799;53.690;10.114;2022-11-23T02:38:47;2.80;99.90
24676;DHT22;12799;53.690;10.114;2022-11-23T02:40:48;2.80;99.90
24676;DHT22;12799;53.690;10.114;2022-11-23T02:42:51;2.80;99.90
24676;DHT22;12799;53.690;10.114;2022-11-23T02:44:54;2.90;99.90
24676;DHT22;12799;53.690;10.114;2022-11-23T02:46:59;2.90;99.90
24676;DHT22;12799;53.690;10.114;2022-11-23T02:49:01;2.90;99.90
24676;DHT22;12799;53.690;10.114;2022-11-23T02:51:03;2.90;99.90
24676;DHT22;12799;53.690;10.114;2022-11-23T02:53:04;2.90;99.90
24676;DHT22;12799;53.690;10.114;2022-11-23T02:55:06;2.90;99.90
24676;DHT22;12799;53.690;10.114;2022-11-23T02:57:08;3.00;99.90
24676;DHT22;12799;53.690;10.114;2022-11-23T02:59:11;3.00;99.90
24676;DHT22;12799;53.690;10.114;2022-11-23T03:01:13;3.00;99.90
24676;DHT22;12799;53.690;10.114;2022-11-23T03:03:15;3.10;99.90
24676;DHT22;12799;53.690;10.114;2022-11-23T03:05:16;3.00;99.90
24676;DHT22;12799;53.690;10.114;2022-11-23T03:07:18;3.00;99.90
24676;DHT22;12799;53.690;10.114;2022-11-23T03:09:20;3.00;99.90
24676;DHT22;12799;53.690;10.114;2022-11-23T03:11:22;3.00;99.90
24676;DHT22;12799;53.690;10.114;2022-11-23T03:13:23;3.00;99.90
24676;DHT22;12799;53.690;10.114;2022-11-23T03:15:27;3.00;99.90
24676;DHT22;12799;53.690;10.114;2022-11-23T03:17:29;3.10;99.90
24676;DHT22;12799;53.690;10.114;2022-11-23T03:19:30;3.10;99.90
24676;DHT22;12799;53.690;10.114;2022-11-23T03:21:32;3.10;99.90
24676;DHT22;12799;53.690;10.114;2022-11-23T03:23:34;3.10;99.90
24676;DHT22;12799;53.690;10.114;2022-11-23T03:25:36;3.10;99.90
24676;DHT22;12799;53.690;10.114;2022-11-23T03:27:37;3.10;99.90
24676;DHT22;12799;53.690;10.114;2022-11-23T03:29:39;3.10;99.90
24676;DHT22;12799;53.690;10.114;2022-11-23T03:31:42;3.10;99.90
24676;DHT22;12799;53.690;10.114;2022-11-23T03:33:44;3.10;99.90
24676;DHT22;12799;53.690;10.114;2022-11-23T03:35:46;3.10;99.90
24676;DHT22;12799;53.690;10.114;2022-11-23T03:37:48;3.20;99.90
24676;DHT22;12799;53.690;10.114;2022-11-23T03:39:50;3.30;99.90
24676;DHT22;12799;53.690;10.114;2022-11-23T03:41:52;3.20;99.90
24676;DHT22;12799;53.690;10.114;2022-11-23T03:43:54;3.20;99.90
24676;DHT22;12799;53.690;10.114;2022-11-23T03:45:55;3.20;99.90
24676;DHT22;12799;53.690;10.114;2022-11-23T03:47:58;3.30;99.90
24676;DHT22;12799;53.690;10.114;2022-11-23T03:50:00;3.20;99.90
24676;DHT22;12799;53.690;10.114;2022-11-23T03:52:02;3.30;99.90
24676;DHT22;12799;53.690;10.114;2022-11-23T03:54:04;3.30;99.90
24676;DHT22;12799;53.690;10.114;2022-11-23T03:56:06;3.20;99.90
24676;DHT22;12799;53.690;10.114;2022-11-23T03:58:07;3.20;99.90
24676;DHT22;12799;53.690;10.114;2022-11-23T04:00:10;3.20;99.90
24676;DHT22;12799;53.690;10.114;2022-11-23T04:02:11;3.20;99.90
24676;DHT22;12799;53.690;10.114;2022-11-23T04:04:15;3.30;99.90
24676;DHT22;12799;53.690;10.114;2022-11-23T04:06:18;3.30;99.90
24676;DHT22;12799;53.690;10.114;2022-11-23T04:08:19;3.30;99.90
24676;DHT22;12799;53.690;10.114;2022-11-23T04:10:21;3.30;99.90
24676;DHT22;12799;53.690;10.114;2022-11-23T04:12:23;3.30;99.90
24676;DHT22;12799;53.690;10.114;2022-11-23T04:14:25;3.30;99.90
24676;DHT22;12799;53.690;10.114;2022-11-23T04:16:27;3.30;99.90
24676;DHT22;12799;53.690;10.114;2022-11-23T04:18:28;3.30;99.90
24676;DHT22;12799;53.690;10.114;2022-11-23T04:20:32;3.30;99.90
24676;DHT22;12799;53.690;10.114;2022-11-23T04:22:33;3.40;99.90
24676;DHT22;12799;53.690;10.114;2022-11-23T04:24:35;3.40;99.90
24676;DHT22;12799;53.690;10.114;2022-11-23T04:26:37;3.40;99.90
24676;DHT22;12799;53.690;10.114;2022-11-23T04:28:39;3.30;99.90
24676;DHT22;12799;53.690;10.114;2022-11-23T04:30:41;3.40;99.90
24676;DHT22;12799;53.690;10.114;2022-11-23T04:32:43;3.40;99.90
24676;DHT22;12799;53.690;10.114;2022-11-23T04:34:45;3.40;99.90
24676;DHT22;12799;53.690;10.114;2022-11-23T04:36:48;3.40;99.90
24676;DHT22;12799;53.690;10.114;2022-11-23T04:38:50;3.40;99.90
24676;DHT22;12799;53.690;10.114;2022-11-23T04:40:51;3.40;99.90
24676;DHT22;12799;53.690;10.114;2022-11-23T04:42:53;3.40;99.90
24676;DHT22;12799;53.690;10.114;2022-11-23T04:44:55;3.40;99.90
24676;DHT22;12799;53.690;10.114;2022-11-23T04:46:57;3.40;99.90
24676;DHT22;12799;53.690;10.114;2022-11-23T04:48:59;3.40;99.90
24676;DHT22;12799;53.690;10.114;2022-11-23T04:51:01;3.40;99.90
24676;DHT22;12799;53.690;10.114;2022-11-23T04:53:04;3.50;99.90
24676;DHT22;12799;53.690;10.114;2022-11-23T04:55:06;3.40;99.90
24676;DHT22;12799;53.690;10.114;2022-11-23T04:57:08;3.40;99.90
24676;DHT22;12799;53.690;10.114;2022-11-23T04:59:10;3.40;99.90
24676;DHT22;12799;53.690;10.114;2022-11-23T05:01:11;3.40;99.90
24676;DHT22;12799;53.690;10.114;2022-11-23T05:03:13;3.50;99.90
24676;DHT22;12799;53.690;10.114;2022-11-23T05:05:15;3.60;99.90
24676;DHT22;12799;53.690;10.114;2022-11-23T05:07:17;3.50;99.90
24676;DHT22;12799;53.690;10.114;2022-11-23T05:09:20;3.50;99.90
24676;DHT22;12799;53.690;10.114;2022-11-23T05:11:22;3.50;99.90
24676;DHT22;12799;53.690;10.114;2022-11-23T05:13:24;3.50;99.90
24676;DHT22;12799;53.690;10.114;2022-11-23T05:15:25;3.50;99.90
24676;DHT22;12799;53.690;10.114;2022-11-23T05:17:27;3.50;99.90
24676;DHT22;12799;53.690;10.114;2022-11-23T05:19:29;3.50;99.90
24676;DHT22;12799;53.690;10.114;2022-11-23T05:21:30;3.50;99.90
24676;DHT22;12799;53.690;10.114;2022-11-23T05:23:32;3.50;99.90
24676;DHT22;12799;53.690;10.114;2022-11-23T05:25:35;3.60;99.90
24676;DHT22;12799;53.690;10.114;2022-11-23T05:27:37;3.60;99.90
24676;DHT22;12799;53.690;10.114;2022-11-23T05:29:39;3.60;99.90
24676;DHT22;12799;53.690;10.114;2022-11-23T05:31:40;3.50;99.90
24676;DHT22;12799;53.690;10.114;2022-11-23T05:33:42;3.60;99.90
24676;DHT22;12799;53.690;10.114;2022-11-23T05:35:44;3.60;99.90
24676;DHT22;12799;53.690;10.114;2022-11-23T05:37:45;3.60;99.90
24676;DHT22;12799;53.690;10.114;2022-11-23T05:39:47;3.60;99.90
24676;DHT22;12799;53.690;10.114;2022-11-23T05:41:51;3.60;99.90
24676;DHT22;12799;53.690;10.114;2022-11-23T05:43:53;3.60;99.90
24676;DHT22;12799;53.690;10.114;2022-11-23T05:45:57;3.60;99.90
24676;DHT22;12799;53.690;10.114;2022-11-23T05:47:58;3.70;99.90
24676;DHT22;12799;53.690;10.114;2022-11-23T05:50:00;3.70;99.90
24676;DHT22;12799;53.690;10.114;2022-11-23T05:52:02;3.70;99.90
24676;DHT22;12799;53.690;10.114;2022-11-23T05:54:04;3.70;99.90
24676;DHT22;12799;53.690;10.114;2022-11-23T05:56:06;3.70;99.90
24676;DHT22;12799;53.690;10.114;2022-11-23T05:58:09;3.70;99.90
24676;DHT22;12799;53.690;10.114;2022-11-23T06:00:11;3.70;99.90
24676;DHT22;12799;53.690;10.114;2022-11-23T06:02:13;3.70;99.90
24676;DHT22;12799;53.690;10.114;2022-11-23T06:04:15;3.80;99.90
24676;DHT22;12799;53.690;10.114;2022-11-23T06:06:17;3.80;99.90
24676;DHT22;12799;53.690;10.114;2022-11-23T06:08:19;3.70;99.90
24676;DHT22;12799;53.690;10.114;2022-11-23T06:10:20;3.80;99.90
24676;DHT22;12799;53.690;10.114;2022-11-23T06:12:22;3.80;99.90
24676;DHT22;12799;53.690;10.114;2022-11-23T06:14:25;3.80;99.90
24676;DHT22;12799;53.690;10.114;2022-11-23T06:16:27;3.80;99.90
24676;DHT22;12799;53.690;10.114;2022-11-23T06:18:29;3.80;99.90
24676;DHT22;12799;53.690;10.114;2022-11-23T06:20:30;3.80;99.90
24676;DHT22;12799;53.690;10.114;2022-11-23T06:22:32;3.80;99.90
24676;DHT22;12799;53.690;10.114;2022-11-23T06:24:34;3.80;99.90
24676;DHT22;12799;53.690;10.114;2022-11-23T06:26:36;3.80;99.90
24676;DHT22;12799;53.690;10.114;2022-11-23T06:28:38;3.80;99.90
24676;DHT22;12799;53.690;10.114;2022-11-23T06:30:41;3.80;99.90
24676;DHT22;12799;53.690;10.114;2022-11-23T06:32:43;3.80;99.90
24676;DHT22;12799;53.690;10.114;2022-11-23T06:34:45;3.80;99.90
24676;DHT22;12799;53.690;10.114;2022-11-23T06:36:47;3.80;99.90
24676;DHT22;12799;53.690;10.114;2022-11-23T06:38:48;3.80;99.90
24676;DHT22;12799;53.690;10.114;2022-11-23T06:40:50;3.80;99.90
24676;DHT22;12799;53.690;10.114;2022-11-23T06:42:56;3.80;99.90
24676;DHT22;12799;53.690;10.114;2022-11-23T06:44:58;3.80;99.90
24676;DHT22;12799;53.690;10.114;2022-11-23T06:47:01;3.80;99.90
24676;DHT22;12799;53.690;10.114;2022-11-23T06:49:03;3.80;99.90
24676;DHT22;12799;53.690;10.114;2022-11-23T06:51:05;3.90;99.90
24676;DHT22;12799;53.690;10.114;2022-11-23T06:53:07;3.80;99.90
24676;DHT22;12799;53.690;10.114;2022-11-23T06:55:11;3.90;99.90
24676;DHT22;12799;53.690;10.114;2022-11-23T06:57:13;3.80;99.90
24676;DHT22;12799;53.690;10.114;2022-11-23T06:59:15;3.80;99.90
24676;DHT22;12799;53.690;10.114;2022-11-23T07:01:16;3.90;99.90
24676;DHT22;12799;53.690;10.114;2022-11-23T07:03:20;3.90;99.90
24676;DHT22;12799;53.690;10.114;2022-11-23T07:05:23;3.90;99.90
24676;DHT22;12799;53.690;10.114;2022-11-23T07:07:24;3.90;99.90
24676;DHT22;12799;53.690;10.114;2022-11-23T07:09:26;3.90;99.90
24676;DHT22;12799;53.690;10.114;2022-11-23T07:11:28;3.90;99.90
24676;DHT22;12799;53.690;10.114;2022-11-23T07:13:30;3.90;99.90
24676;DHT22;12799;53.690;10.114;2022-11-23T07:15:31;3.90;99.90
24676;DHT22;12799;53.690;10.114;2022-11-23T07:17:37;3.90;99.90
24676;DHT22;12799;53.690;10.114;2022-11-23T07:19:40;4.00;99.90
24676;DHT22;12799;53.690;10.114;2022-11-23T07:21:43;4.00;99.90
24676;DHT22;12799;53.690;10.114;2022-11-23T07:23:45;4.00;99.90
24676;DHT22;12799;53.690;10.114;2022-11-23T07:25:46;4.00;99.90
24676;DHT22;12799;53.690;10.114;2022-11-23T07:27:53;4.00;99.90
24676;DHT22;12799;53.690;10.114;2022-11-23T07:29:54;4.00;99.90
24676;DHT22;12799;53.690;10.114;2022-11-23T07:31:56;4.10;99.90
24676;DHT22;12799;53.690;10.114;2022-11-23T07:33:58;4.10;99.90
24676;DHT22;12799;53.690;10.114;2022-11-23T07:36:01;4.10;99.90
24676;DHT22;12799;53.690;10.114;2022-11-23T07:38:04;4.10;99.90
24676;DHT22;12799;53.690;10.114;2022-11-23T07:40:07;4.10;99.90
24676;DHT22;12799;53.690;10.114;2022-11-23T07:42:10;4.10;99.90
24676;DHT22;12799;53.690;10.114;2022-11-23T07:44:11;4.20;99.90
24676;DHT22;12799;53.690;10.114;2022-11-23T07:46:13;4.20;99.90
24676;DHT22;12799;53.690;10.114;2022-11-23T07:48:15;4.20;99.90
24676;DHT22;12799;53.690;10.114;2022-11-23T07:50:17;4.30;99.90
24676;DHT22;12799;53.690;10.114;2022-11-23T07:52:20;4.20;99.90
24676;DHT22;12799;53.690;10.114;2022-11-23T07:54:22;4.30;99.90
24676;DHT22;12799;53.690;10.114;2022-11-23T07:56:24;4.30;99.90
24676;DHT22;12799;53.690;10.114;2022-11-23T07:58:25;4.30;99.90
24676;DHT22;12799;53.690;10.114;2022-11-23T08:00:27;4.30;99.90
24676;DHT22;12799;53.690;10.114;2022-11-23T08:02:29;4.30;99.90
24676;DHT22;12799;53.690;10.114;2022-11-23T08:04:31;4.40;99.90
24676;DHT22;12799;53.690;10.114;2022-11-23T08:06:33;4.40;99.90
24676;DHT22;12799;53.690;10.114;2022-11-23T08:08:36;4.40;99.90
24676;DHT22;12799;53.690;10.114;2022-11-23T08:10:38;4.50;99.90
24676;DHT22;12799;53.690;10.114;2022-11-23T08:12:40;4.40;99.90
24676;DHT22;12799;53.690;10.114;2022-11-23T08:14:42;4.50;99.90
24676;DHT22;12799;53.690;10.114;2022-11-23T08:16:47;4.50;99.90
24676;DHT22;12799;53.690;10.114;2022-11-23T08:18:49;4.50;99.90
24676;DHT22;12799;53.690;10.114;2022-11-23T08:20:51;4.50;99.90
24676;DHT22;12799;53.690;10.114;2022-11-23T08:22:53;4.60;99.90
24676;DHT22;12799;53.690;10.114;2022-11-23T08:24:57;4.60;99.90
24676;DHT22;12799;53.690;10.114;2022-11-23T08:26:59;4.60;99.90
24676;DHT22;12799;53.690;10.114;2022-11-23T08:29:01;4.60;99.90
24676;DHT22;12799;53.690;10.114;2022-11-23T08:31:04;4.70;99.90
24676;DHT22;12799;53.690;10.114;2022-11-23T08:33:08;4.70;99.90
24676;DHT22;12799;53.690;10.114;2022-11-23T08:35:12;4.80;99.90
24676;DHT22;12799;53.690;10.114;2022-11-23T08:37:15;4.80;99.90
24676;DHT22;12799;53.690;10.114;2022-11-23T08:39:17;4.90;99.90
24676;DHT22;12799;53.690;10.114;2022-11-23T08:41:20;4.90;99.90
24676;DHT22;12799;53.690;10.114;2022-11-23T08:43:22;4.90;99.90
24676;DHT22;12799;53.690;10.114;2022-11-23T08:45:24;5.00;99.90
24676;DHT22;12799;53.690;10.114;2022-11-23T08:47:26;5.00;99.90
24676;DHT22;12799;53.690;10.114;2022-11-23T08:49:27;5.00;99.90
24676;DHT22;12799;53.690;10.114;2022-11-23T08:51:29;5.00;99.90
24676;DHT22;12799;53.690;10.114;2022-11-23T08:53:31;5.10;99.90
24676;DHT22;12799;53.690;10.114;2022-11-23T08:55:33;5.10;99.90
24676;DHT22;12799;53.690;10.114;2022-11-23T08:57:36;5.10;99.90
24676;DHT22;12799;53.690;10.114;2022-11-23T08:59:38;5.20;99.90
24676;DHT22;12799;53.690;10.114;2022-11-23T09:01:40;5.20;99.90
24676;DHT22;12799;53.690;10.114;2022-11-23T09:03:43;5.10;99.90
24676;DHT22;12799;53.690;10.114;2022-11-23T09:05:46;5.20;99.90
24676;DHT22;12799;53.690;10.114;2022-11-23T09:07:48;5.20;99.90
24676;DHT22;12799;53.690;10.114;2022-11-23T09:09:50;5.30;99.90
24676;DHT22;12799;53.690;10.114;2022-11-23T09:11:53;5.30;99.90
24676;DHT22;12799;53.690;10.114;2022-11-23T09:13:57;5.30;99.90
24676;DHT22;12799;53.690;10.114;2022-11-23T09:16:01;5.30;99.90
24676;DHT22;12799;53.690;10.114;2022-11-23T09:18:06;5.40;99.90
24676;DHT22;12799;53.690;10.114;2022-11-23T09:20:08;5.40;99.90
24676;DHT22;12799;53.690;10.114;2022-11-23T09:22:12;5.40;99.90
24676;DHT22;12799;53.690;10.114;2022-11-23T09:24:18;5.40;99.90
24676;DHT22;12799;53.690;10.114;2022-11-23T09:26:27;5.60;99.90
24676;DHT22;12799;53.690;10.114;2022-11-23T09:28:31;5.50;99.90
24676;DHT22;12799;53.690;10.114;2022-11-23T09:30:35;5.50;99.90
24676;DHT22;12799;53.690;10.114;2022-11-23T09:32:37;5.50;99.90
24676;DHT22;12799;53.690;10.114;2022-11-23T09:34:38;5.60;99.90
24676;DHT22;12799;53.690;10.114;2022-11-23T09:36:40;5.60;99.90
24676;DHT22;12799;53.690;10.114;2022-11-23T09:38:42;5.70;99.90
24676;DHT22;12799;53.690;10.114;2022-11-23T09:40:44;5.70;99.90
24676;DHT22;12799;53.690;10.114;2022-11-23T09:42:50;5.70;99.90
24676;DHT22;12799;53.690;10.114;2022-11-23T09:45:07;5.80;99.90
24676;DHT22;12799;53.690;10.114;2022-11-23T09:47:17;5.80;99.90
24676;DHT22;12799;53.690;10.114;2022-11-23T09:49:25;5.90;99.90
24676;DHT22;12799;53.690;10.114;2022-11-23T09:51:29;5.90;99.90
24676;DHT22;12799;53.690;10.114;2022-11-23T09:53:33;5.90;99.90
24676;DHT22;12799;53.690;10.114;2022-11-23T09:55:36;6.00;99.90
24676;DHT22;12799;53.690;10.114;2022-11-23T09:57:39;6.00;99.90
24676;DHT22;12799;53.690;10.114;2022-11-23T09:59:43;6.00;99.90
24676;DHT22;12799;53.690;10.114;2022-11-23T10:01:46;6.10;99.90
24676;DHT22;12799;53.690;10.114;2022-11-23T10:03:49;6.10;99.90
24676;DHT22;12799;53.690;10.114;2022-11-23T10:06:06;6.10;99.90
24676;DHT22;12799;53.690;10.114;2022-11-23T10:08:13;6.20;99.90
24676;DHT22;12799;53.690;10.114;2022-11-23T10:10:22;6.20;99.90
24676;DHT22;12799;53.690;10.114;2022-11-23T10:12:30;6.30;99.90
24676;DHT22;12799;53.690;10.114;2022-11-23T10:14:37;6.30;99.90
24676;DHT22;12799;53.690;10.114;2022-11-23T10:16:42;6.30;99.90
24676;DHT22;12799;53.690;10.114;2022-11-23T10:18:51;6.30;99.90
24676;DHT22;12799;53.690;10.114;2022-11-23T10:20:57;6.40;99.90
24676;DHT22;12799;53.690;10.114;2022-11-23T10:23:00;6.40;99.90
24676;DHT22;12799;53.690;10.114;2022-11-23T10:25:06;6.40;99.90
24676;DHT22;12799;53.690;10.114;2022-11-23T10:27:13;6.50;99.90
24676;DHT22;12799;53.690;10.114;2022-11-23T10:29:16;6.50;99.90
24676;DHT22;12799;53.690;10.114;2022-11-23T10:31:21;6.60;99.90
24676;DHT22;12799;53.690;10.114;2022-11-23T10:33:25;6.60;99.90
24676;DHT22;12799;53.690;10.114;2022-11-23T10:35:32;6.60;99.90
24676;DHT22;12799;53.690;10.114;2022-11-23T10:37:35;6.60;99.90
24676;DHT22;12799;53.690;10.114;2022-11-23T10:39:38;6.70;99.90
24676;DHT22;12799;53.690;10.114;2022-11-23T10:41:40;6.70;99.90
24676;DHT22;12799;53.690;10.114;2022-11-23T10:43:43;6.70;99.90
24676;DHT22;12799;53.690;10.114;2022-11-23T10:45:47;6.70;99.90
24676;DHT22;12799;53.690;10.114;2022-11-23T10:47:49;6.80;99.90
24676;DHT22;12799;53.690;10.114;2022-11-23T10:49:55;6.80;99.90
24676;DHT22;12799;53.690;10.114;2022-11-23T10:51:59;6.90;99.90
24676;DHT22;12799;53.690;10.114;2022-11-23T10:54:03;6.90;99.90
24676;DHT22;12799;53.690;10.114;2022-11-23T10:56:05;7.00;99.90
24676;DHT22;12799;53.690;10.114;2022-11-23T10:58:13;7.00;99.90
24676;DHT22;12799;53.690;10.114;2022-11-23T11:00:24;7.10;99.90
24676;DHT22;12799;53.690;10.114;2022-11-23T11:02:27;7.10;99.90
24676;DHT22;12799;53.690;10.114;2022-11-23T11:04:30;7.20;99.90
24676;DHT22;12799;53.690;10.114;2022-11-23T11:06:32;7.20;99.90
24676;DHT22;12799;53.690;10.114;2022-11-23T11:08:46;7.30;99.90
24676;DHT22;12799;53.690;10.114;2022-11-23T11:10:55;7.30;99.90
24676;DHT22;12799;53.690;10.114;2022-11-23T11:12:57;7.30;99.90
24676;DHT22;12799;53.690;10.114;2022-11-23T11:15:00;7.40;99.90
24676;DHT22;12799;53.690;10.114;2022-11-23T11:17:09;7.40;99.90
24676;DHT22;12799;53.690;10.114;2022-11-23T11:19:26;7.40;99.90
24676;DHT22;12799;53.690;10.114;2022-11-23T11:21:30;7.50;99.90
24676;DHT22;12799;53.690;10.114;2022-11-23T11:23:32;7.50;99.90
24676;DHT22;12799;53.690;10.114;2022-11-23T11:25:36;7.50;99.90
24676;DHT22;12799;53.690;10.114;2022-11-23T11:27:38;7.50;99.90
24676;DHT22;12799;53.690;10.114;2022-11-23T11:29:52;7.60;99.90
24676;DHT22;12799;53.690;10.114;2022-11-23T11:31:55;7.60;99.90
24676;DHT22;12799;53.690;10.114;2022-11-23T11:34:01;7.70;99.90
24676;DHT22;12799;53.690;10.114;2022-11-23T11:36:05;7.70;99.90
24676;DHT22;12799;53.690;10.114;2022-11-23T11:38:10;7.70;99.90
24676;DHT22;12799;53.690;10.114;2022-11-23T11:40:17;7.70;99.90
24676;DHT22;12799;53.690;10.114;2022-11-23T11:42:22;7.80;99.90
24676;DHT22;12799;53.690;10.114;2022-11-23T11:44:27;7.70;99.90
24676;DHT22;12799;53.690;10.114;2022-11-23T11:46:34;7.80;99.90
24676;DHT22;12799;53.690;10.114;2022-11-23T11:48:38;7.80;99.90
24676;DHT22;12799;53.690;10.114;2022-11-23T11:50:43;7.80;99.90
24676;DHT22;12799;53.690;10.114;2022-11-23T11:52:48;7.80;99.90
24676;DHT22;12799;53.690;10.114;2022-11-23T11:54:52;7.80;99.90
24676;DHT22;12799;53.690;10.114;2022-11-23T11:56:56;7.80;99.90
24676;DHT22;12799;53.690;10.114;2022-11-23T11:59:04;7.80;99.90
24676;DHT22;12799;53.690;10.114;2022-11-23T12:01:12;7.80;99.90
24676;DHT22;12799;53.690;10.114;2022-11-23T12:03:22;7.80;99.90
24676;DHT22;12799;53.690;10.114;2022-11-23T12:05:25;7.80;99.90
24676;DHT22;12799;53.690;10.114;2022-11-23T12:07:31;7.90;99.90
24676;DHT22;12799;53.690;10.114;2022-11-23T12:09:34;7.90;99.90
24676;DHT22;12799;53.690;10.114;2022-11-23T12:11:37;7.90;99.90
24676;DHT22;12799;53.690;10.114;2022-11-23T12:13:40;7.90;99.90
24676;DHT22;12799;53.690;10.114;2022-11-23T12:15:44;7.90;99.90
24676;DHT22;12799;53.690;10.114;2022-11-23T12:18:02;7.90;99.90
24676;DHT22;12799;53.690;10.114;2022-11-23T12:20:10;7.90;99.90
24676;DHT22;12799;53.690;10.114;2022-11-23T12:22:21;7.90;99.90
24676;DHT22;12799;53.690;10.114;2022-11-23T12:24:28;7.90;99.90
24676;DHT22;12799;53.690;10.114;2022-11-23T12:26:36;7.90;99.90
24676;DHT22;12799;53.690;10.114;2022-11-23T12:28:47;8.00;99.90
24676;DHT22;12799;53.690;10.114;2022-11-23T12:30:56;8.00;99.90
24676;DHT22;12799;53.690;10.114;2022-11-23T12:33:13;8.00;99.90
24676;DHT22;12799;53.690;10.114;2022-11-23T12:37:50;8.10;99.90
24676;DHT22;12799;53.690;10.114;2022-11-23T12:39:59;8.10;99.90
24676;DHT22;12799;53.690;10.114;2022-11-23T12:42:04;8.10;99.90
24676;DHT22;12799;53.690;10.114;2022-11-23T12:44:17;8.10;99.90
24676;DHT22;12799;53.690;10.114;2022-11-23T12:46:24;8.10;99.90
24676;DHT22;12799;53.690;10.114;2022-11-23T12:48:32;8.10;99.90
24676;DHT22;12799;53.690;10.114;2022-11-23T12:50:38;8.10;99.90
24676;DHT22;12799;53.690;10.114;2022-11-23T12:52:46;8.10;99.90
24676;DHT22;12799;53.690;10.114;2022-11-23T12:54:55;8.10;99.90
24676;DHT22;12799;53.690;10.114;2022-11-23T12:57:03;8.00;99.90
24676;DHT22;12799;53.690;10.114;2022-11-23T12:59:08;8.10;99.90
24676;DHT22;12799;53.690;10.114;2022-11-23T13:01:11;8.00;99.90